DLH1498 EDDF-LPFR
Flight info
| Callsign | DLH1498 |
|---|---|
| Flight time | 2h 56m |
| Altitude | 34000 |
| Route | ANEKI3F ANEKI DCT VABEN DCT OVTEC DCT OBORN DCT MOROK/N0449F350 DCT GILIR DCT NINTU DCT MEBAK DCT REPSI DCT LERGA DCT MINSO DCT NARAK DCT AGN/N0455F370 DCT PIPOR L866 PPN DCT MIRPO DCT DGO DCT NEA L14 ADINO DCT RAKOD DCT ELVAR DCT ALAGU DCT USALU DCT |
| Aircraft | A321/M-SDE2E3FGIJ1LORWXYZ/HB1 |
Departure
| Time | 2026-05-06 11:41 |
|---|---|
| Airport | Frankfurt Main Airport (EDDF) |
Arrival
| Time | 2026-05-06 14:37 |
|---|---|
| Airport | Faro - Gago Coutinho International Airport (LPFR) |
| Time | Latitude | Longitude | Altitude | Speed | Heading |
|---|---|---|---|---|---|
| 2026-05-06 10:20 | 50.04850 | 8.56953 | 346 ft | 0 kts | 288° |
| 2026-05-06 11:29 | 50.04847 | 8.56967 | 346 ft | 1 kts | 288° |
| 2026-05-06 11:29 | 50.04844 | 8.56980 | 356 ft | 1 kts | 288° |
| 2026-05-06 11:29 | 50.04841 | 8.56994 | 356 ft | 1 kts | 288° |
| 2026-05-06 11:29 | 50.04839 | 8.57007 | 356 ft | 1 kts | 288° |
| 2026-05-06 11:30 | 50.04836 | 8.57020 | 354 ft | 1 kts | 281° |
| 2026-05-06 11:30 | 50.04834 | 8.57034 | 355 ft | 1 kts | 257° |
| 2026-05-06 11:30 | 50.04837 | 8.57048 | 353 ft | 1 kts | 226° |
| 2026-05-06 11:30 | 50.04840 | 8.57055 | 352 ft | 0 kts | 206° |
| 2026-05-06 11:33 | 50.04814 | 8.57039 | 353 ft | 9 kts | 200° |
| 2026-05-06 11:33 | 50.04750 | 8.57004 | 349 ft | 10 kts | 200° |
| 2026-05-06 11:33 | 50.04681 | 8.56955 | 351 ft | 11 kts | 205° |
| 2026-05-06 11:34 | 50.04603 | 8.56911 | 346 ft | 12 kts | 194° |
| 2026-05-06 11:34 | 50.04517 | 8.56878 | 346 ft | 13 kts | 193° |
| 2026-05-06 11:34 | 50.04424 | 8.56847 | 352 ft | 14 kts | 191° |
| 2026-05-06 11:34 | 50.04334 | 8.56821 | 346 ft | 7 kts | 186° |
| 2026-05-06 11:35 | 50.04290 | 8.56852 | 353 ft | 8 kts | 129° |
| 2026-05-06 11:35 | 50.04293 | 8.56967 | 351 ft | 14 kts | 70° |
| 2026-05-06 11:35 | 50.04326 | 8.57110 | 349 ft | 15 kts | 70° |
| 2026-05-06 11:35 | 50.04362 | 8.57263 | 350 ft | 16 kts | 70° |
| 2026-05-06 11:36 | 50.04401 | 8.57425 | 354 ft | 16 kts | 68° |
| 2026-05-06 11:36 | 50.04442 | 8.57595 | 353 ft | 17 kts | 70° |
| 2026-05-06 11:36 | 50.04483 | 8.57775 | 347 ft | 18 kts | 70° |
| 2026-05-06 11:36 | 50.04518 | 8.57913 | 348 ft | 10 kts | 69° |
| 2026-05-06 11:37 | 50.04544 | 8.58022 | 355 ft | 11 kts | 69° |
| 2026-05-06 11:37 | 50.04572 | 8.58141 | 355 ft | 12 kts | 70° |
| 2026-05-06 11:37 | 50.04606 | 8.58282 | 351 ft | 15 kts | 70° |
| 2026-05-06 11:37 | 50.04643 | 8.58439 | 346 ft | 15 kts | 70° |
| 2026-05-06 11:38 | 50.04623 | 8.58570 | 349 ft | 12 kts | 147° |
| 2026-05-06 11:38 | 50.04555 | 8.58602 | 355 ft | 10 kts | 160° |
| 2026-05-06 11:38 | 50.04491 | 8.58585 | 351 ft | 10 kts | 229° |
| 2026-05-06 11:38 | 50.04478 | 8.58537 | 351 ft | 0 kts | 250° |
| 2026-05-06 11:39 | 50.04477 | 8.58537 | 351 ft | 0 kts | 250° |
| 2026-05-06 11:39 | 50.04477 | 8.58534 | 351 ft | 0 kts | 250° |
| 2026-05-06 11:40 | 50.04447 | 8.58407 | 354 ft | 44 kts | 249° |
| 2026-05-06 11:40 | 50.04335 | 8.57948 | 353 ft | 91 kts | 249° |
| 2026-05-06 11:40 | 50.03910 | 8.56184 | 348 ft | 166 kts | 250° |
| 2026-05-06 11:40 | 50.03615 | 8.54917 | 416 ft | 190 kts | 248° |
| 2026-05-06 11:41 | 50.03156 | 8.52993 | 1090 ft | 192 kts | 249° |
| 2026-05-06 11:41 | 50.02546 | 8.51160 | 1805 ft | 193 kts | 232° |
| 2026-05-06 11:41 | 50.01451 | 8.49819 | 2163 ft | 207 kts | 204° |
| 2026-05-06 11:41 | 50.00050 | 8.49206 | 2680 ft | 212 kts | 189° |
| 2026-05-06 11:42 | 49.98576 | 8.49445 | 3328 ft | 218 kts | 160° |
| 2026-05-06 11:42 | 49.97336 | 8.50825 | 3984 ft | 225 kts | 133° |
| 2026-05-06 11:42 | 49.96244 | 8.52572 | 4658 ft | 226 kts | 148° |
| 2026-05-06 11:42 | 49.94741 | 8.53412 | 4986 ft | 241 kts | 181° |
| 2026-05-06 11:43 | 49.93001 | 8.53261 | 5317 ft | 259 kts | 182° |
| 2026-05-06 11:43 | 49.91152 | 8.53332 | 5984 ft | 265 kts | 180° |
| 2026-05-06 11:43 | 49.89319 | 8.53422 | 6694 ft | 268 kts | 180° |
| 2026-05-06 11:44 | 49.85532 | 8.53638 | 8115 ft | 273 kts | 179° |
| 2026-05-06 11:44 | 49.83619 | 8.53757 | 8822 ft | 276 kts | 179° |
| 2026-05-06 11:44 | 49.81690 | 8.53884 | 9661 ft | 280 kts | 179° |
| 2026-05-06 11:44 | 49.79706 | 8.54022 | 10206 ft | 295 kts | 179° |
| 2026-05-06 11:45 | 49.77574 | 8.54067 | 10428 ft | 316 kts | 185° |
| 2026-05-06 11:45 | 49.75332 | 8.53782 | 10743 ft | 329 kts | 186° |
| 2026-05-06 11:45 | 49.73043 | 8.53478 | 11312 ft | 333 kts | 186° |
| 2026-05-06 11:45 | 49.70689 | 8.53162 | 11942 ft | 336 kts | 186° |
| 2026-05-06 11:46 | 49.68383 | 8.52854 | 12556 ft | 338 kts | 186° |
| 2026-05-06 11:46 | 49.65997 | 8.52535 | 13216 ft | 341 kts | 186° |
| 2026-05-06 11:46 | 49.63594 | 8.52213 | 13816 ft | 344 kts | 186° |
| 2026-05-06 11:46 | 49.61200 | 8.51894 | 14358 ft | 346 kts | 186° |
| 2026-05-06 11:47 | 49.58789 | 8.51575 | 14911 ft | 349 kts | 186° |
| 2026-05-06 11:47 | 49.56302 | 8.51248 | 15482 ft | 351 kts | 186° |
| 2026-05-06 11:47 | 49.53881 | 8.50931 | 16021 ft | 354 kts | 185° |
| 2026-05-06 11:47 | 49.51415 | 8.50611 | 16566 ft | 356 kts | 185° |
| 2026-05-06 11:48 | 49.48940 | 8.50289 | 17099 ft | 359 kts | 185° |
| 2026-05-06 11:48 | 49.46439 | 8.49960 | 17619 ft | 362 kts | 185° |
| 2026-05-06 11:48 | 49.43924 | 8.49630 | 18135 ft | 364 kts | 185° |
| 2026-05-06 11:48 | 49.41313 | 8.49288 | 18599 ft | 367 kts | 185° |
| 2026-05-06 11:49 | 49.38828 | 8.48964 | 19045 ft | 370 kts | 185° |
| 2026-05-06 11:49 | 49.36205 | 8.48622 | 19506 ft | 372 kts | 186° |
| 2026-05-06 11:49 | 49.33668 | 8.47922 | 19930 ft | 375 kts | 196° |
| 2026-05-06 11:49 | 49.31238 | 8.46449 | 20368 ft | 377 kts | 207° |
| 2026-05-06 11:50 | 49.29048 | 8.44260 | 20822 ft | 381 kts | 218° |
| 2026-05-06 11:50 | 49.27056 | 8.41524 | 21256 ft | 384 kts | 221° |
| 2026-05-06 11:50 | 49.25076 | 8.38757 | 21688 ft | 386 kts | 221° |
| 2026-05-06 11:50 | 49.23079 | 8.35974 | 22118 ft | 389 kts | 221° |
| 2026-05-06 11:51 | 49.21077 | 8.33186 | 22557 ft | 392 kts | 221° |
| 2026-05-06 11:51 | 49.19052 | 8.30368 | 22962 ft | 394 kts | 221° |
| 2026-05-06 11:51 | 49.17017 | 8.27542 | 23364 ft | 396 kts | 221° |
| 2026-05-06 11:51 | 49.14967 | 8.24706 | 23729 ft | 398 kts | 221° |
| 2026-05-06 11:52 | 49.12907 | 8.21859 | 24099 ft | 400 kts | 221° |
| 2026-05-06 11:52 | 49.10800 | 8.18947 | 24484 ft | 401 kts | 221° |
| 2026-05-06 11:52 | 49.08742 | 8.16105 | 24856 ft | 402 kts | 221° |
| 2026-05-06 11:52 | 49.06664 | 8.13227 | 25230 ft | 404 kts | 221° |
| 2026-05-06 11:53 | 49.04632 | 8.10255 | 25598 ft | 406 kts | 223° |
| 2026-05-06 11:53 | 49.02650 | 8.07189 | 25954 ft | 408 kts | 224° |
| 2026-05-06 11:53 | 49.00685 | 8.04059 | 26295 ft | 409 kts | 225° |
| 2026-05-06 11:53 | 48.98696 | 8.00860 | 26669 ft | 411 kts | 225° |
| 2026-05-06 11:54 | 48.96723 | 7.97700 | 27012 ft | 413 kts | 224° |
| 2026-05-06 11:54 | 48.94731 | 7.94548 | 27348 ft | 415 kts | 224° |
| 2026-05-06 11:54 | 48.92721 | 7.91403 | 27679 ft | 416 kts | 224° |
| 2026-05-06 11:54 | 48.90682 | 7.88244 | 28021 ft | 418 kts | 223° |
| 2026-05-06 11:55 | 48.88627 | 7.85077 | 28345 ft | 420 kts | 223° |
| 2026-05-06 11:55 | 48.86578 | 7.81922 | 28657 ft | 422 kts | 223° |
| 2026-05-06 11:55 | 48.84517 | 7.78751 | 28975 ft | 424 kts | 223° |
| 2026-05-06 11:55 | 48.82435 | 7.75547 | 28962 ft | 426 kts | 223° |
| 2026-05-06 11:56 | 48.80365 | 7.72351 | 29417 ft | 424 kts | 221° |
| 2026-05-06 11:56 | 48.78267 | 7.69107 | 29782 ft | 424 kts | 221° |
| 2026-05-06 11:56 | 48.76188 | 7.65895 | 30038 ft | 426 kts | 221° |
| 2026-05-06 11:56 | 48.74120 | 7.62712 | 30269 ft | 427 kts | 221° |
| 2026-05-06 11:57 | 48.72028 | 7.59501 | 30483 ft | 428 kts | 221° |
| 2026-05-06 11:57 | 48.69905 | 7.56245 | 30718 ft | 430 kts | 221° |
| 2026-05-06 11:57 | 48.67808 | 7.53032 | 30997 ft | 429 kts | 221° |
| 2026-05-06 11:57 | 48.65711 | 7.49822 | 31287 ft | 428 kts | 221° |
| 2026-05-06 11:58 | 48.63619 | 7.46628 | 31579 ft | 427 kts | 221° |
| 2026-05-06 11:58 | 48.61529 | 7.43442 | 31878 ft | 426 kts | 221° |
| 2026-05-06 11:58 | 48.59446 | 7.40269 | 32172 ft | 425 kts | 221° |
| 2026-05-06 11:58 | 48.57366 | 7.37099 | 32468 ft | 424 kts | 221° |
| 2026-05-06 11:59 | 48.55279 | 7.33923 | 32739 ft | 423 kts | 221° |
| 2026-05-06 11:59 | 48.53221 | 7.30798 | 33031 ft | 423 kts | 221° |
| 2026-05-06 11:59 | 48.51145 | 7.27652 | 33317 ft | 422 kts | 221° |
| 2026-05-06 11:59 | 48.49072 | 7.24515 | 33597 ft | 421 kts | 220° |
| 2026-05-06 12:00 | 48.46866 | 7.21649 | 33779 ft | 417 kts | 212° |
| 2026-05-06 12:00 | 48.45233 | 7.20072 | 33816 ft | 409 kts | 205° |
| 2026-05-06 12:00 | 48.39102 | 7.16467 | 33816 ft | 403 kts | 196° |
| 2026-05-06 12:01 | 48.33824 | 7.13718 | 33825 ft | 404 kts | 197° |
| 2026-05-06 12:01 | 48.28518 | 7.10944 | 33836 ft | 404 kts | 197° |
| 2026-05-06 12:02 | 48.23193 | 7.08174 | 33824 ft | 405 kts | 197° |
| 2026-05-06 12:02 | 48.18703 | 7.05847 | 33821 ft | 406 kts | 197° |
| 2026-05-06 12:03 | 48.13370 | 7.03083 | 33828 ft | 408 kts | 197° |
| 2026-05-06 12:03 | 48.08010 | 7.00310 | 33832 ft | 408 kts | 197° |
| 2026-05-06 12:04 | 48.02575 | 6.97517 | 33842 ft | 409 kts | 197° |
| 2026-05-06 12:04 | 47.97209 | 6.94770 | 33850 ft | 410 kts | 198° |
| 2026-05-06 12:05 | 47.91819 | 6.91998 | 33874 ft | 410 kts | 198° |
| 2026-05-06 12:05 | 47.86420 | 6.89227 | 33882 ft | 411 kts | 198° |
| 2026-05-06 12:06 | 47.81011 | 6.86469 | 33890 ft | 411 kts | 198° |
| 2026-05-06 12:06 | 47.75554 | 6.83695 | 33895 ft | 412 kts | 198° |
| 2026-05-06 12:07 | 47.70139 | 6.80941 | 33903 ft | 412 kts | 198° |
| 2026-05-06 12:07 | 47.64713 | 6.78196 | 33908 ft | 412 kts | 198° |
| 2026-05-06 12:08 | 47.59289 | 6.75447 | 33909 ft | 412 kts | 198° |
| 2026-05-06 12:08 | 47.53858 | 6.72692 | 33912 ft | 412 kts | 198° |
| 2026-05-06 12:09 | 47.48389 | 6.69932 | 33905 ft | 413 kts | 198° |
| 2026-05-06 12:09 | 47.42954 | 6.67196 | 33909 ft | 413 kts | 198° |
| 2026-05-06 12:10 | 47.37882 | 6.63274 | 33910 ft | 415 kts | 216° |
| 2026-05-06 12:10 | 47.33474 | 6.57757 | 33916 ft | 415 kts | 219° |
| 2026-05-06 12:11 | 47.29007 | 6.52149 | 33925 ft | 415 kts | 219° |
| 2026-05-06 12:11 | 47.24651 | 6.46700 | 33920 ft | 414 kts | 218° |
| 2026-05-06 12:12 | 47.20254 | 6.41214 | 33930 ft | 415 kts | 219° |
| 2026-05-06 12:12 | 47.15854 | 6.35741 | 33936 ft | 414 kts | 219° |
| 2026-05-06 12:13 | 47.11457 | 6.30273 | 33934 ft | 413 kts | 219° |
| 2026-05-06 12:13 | 47.07017 | 6.24827 | 33939 ft | 412 kts | 215° |
| 2026-05-06 12:14 | 47.02063 | 6.20662 | 33933 ft | 411 kts | 207° |
| 2026-05-06 12:14 | 46.96989 | 6.16803 | 33942 ft | 411 kts | 207° |
| 2026-05-06 12:15 | 46.91913 | 6.12946 | 33940 ft | 411 kts | 207° |
| 2026-05-06 12:15 | 46.86818 | 6.09078 | 33942 ft | 410 kts | 207° |
| 2026-05-06 12:16 | 46.81753 | 6.05242 | 33939 ft | 410 kts | 207° |
| 2026-05-06 12:16 | 46.76658 | 6.01391 | 33951 ft | 409 kts | 207° |
| 2026-05-06 12:17 | 46.71595 | 5.97585 | 33948 ft | 409 kts | 207° |
| 2026-05-06 12:17 | 46.66538 | 5.93790 | 33956 ft | 409 kts | 207° |
| 2026-05-06 12:18 | 46.61486 | 5.89999 | 33962 ft | 409 kts | 207° |
| 2026-05-06 12:18 | 46.56426 | 5.86211 | 33955 ft | 408 kts | 207° |
| 2026-05-06 12:19 | 46.51376 | 5.82438 | 33964 ft | 408 kts | 207° |
| 2026-05-06 12:19 | 46.46297 | 5.78647 | 33967 ft | 408 kts | 207° |
| 2026-05-06 12:20 | 46.41254 | 5.74894 | 33955 ft | 407 kts | 207° |
| 2026-05-06 12:20 | 46.36224 | 5.71167 | 33959 ft | 407 kts | 207° |
| 2026-05-06 12:21 | 46.31170 | 5.67425 | 33954 ft | 407 kts | 207° |
| 2026-05-06 12:21 | 46.26133 | 5.63708 | 33957 ft | 407 kts | 207° |
| 2026-05-06 12:22 | 46.21061 | 5.59969 | 33957 ft | 406 kts | 207° |
| 2026-05-06 12:22 | 46.16092 | 5.55979 | 33963 ft | 406 kts | 217° |
| 2026-05-06 12:23 | 46.12229 | 5.50106 | 33964 ft | 407 kts | 234° |
| 2026-05-06 12:23 | 46.09040 | 5.43371 | 33965 ft | 407 kts | 233° |
| 2026-05-06 12:24 | 46.06334 | 5.37759 | 33962 ft | 407 kts | 233° |
| 2026-05-06 12:24 | 46.03091 | 5.31071 | 33961 ft | 407 kts | 233° |
| 2026-05-06 12:25 | 45.99857 | 5.24386 | 33963 ft | 407 kts | 233° |
| 2026-05-06 12:25 | 45.96624 | 5.17689 | 33968 ft | 408 kts | 233° |
| 2026-05-06 12:26 | 45.93361 | 5.10947 | 33969 ft | 407 kts | 233° |
| 2026-05-06 12:26 | 45.90120 | 5.04282 | 33971 ft | 407 kts | 233° |
| 2026-05-06 12:27 | 45.86854 | 4.97585 | 33975 ft | 407 kts | 233° |
| 2026-05-06 12:27 | 45.83614 | 4.90947 | 33974 ft | 406 kts | 233° |
| 2026-05-06 12:28 | 45.80364 | 4.84320 | 33975 ft | 406 kts | 233° |
| 2026-05-06 12:28 | 45.77097 | 4.77663 | 33975 ft | 405 kts | 233° |
| 2026-05-06 12:29 | 45.73851 | 4.71064 | 33970 ft | 405 kts | 233° |
| 2026-05-06 12:29 | 45.70602 | 4.64474 | 33960 ft | 405 kts | 233° |
| 2026-05-06 12:30 | 45.67353 | 4.57897 | 33948 ft | 405 kts | 233° |
| 2026-05-06 12:30 | 45.64099 | 4.51324 | 33944 ft | 405 kts | 233° |
| 2026-05-06 12:31 | 45.60835 | 4.44744 | 33940 ft | 406 kts | 233° |
| 2026-05-06 12:31 | 45.57569 | 4.38179 | 33939 ft | 406 kts | 233° |
| 2026-05-06 12:32 | 45.54295 | 4.31619 | 33941 ft | 406 kts | 233° |
| 2026-05-06 12:32 | 45.50997 | 4.25014 | 33939 ft | 406 kts | 233° |
| 2026-05-06 12:33 | 45.47714 | 4.18457 | 33942 ft | 406 kts | 233° |
| 2026-05-06 12:33 | 45.44423 | 4.11912 | 33939 ft | 406 kts | 233° |
| 2026-05-06 12:34 | 45.41098 | 4.05328 | 33930 ft | 407 kts | 233° |
| 2026-05-06 12:34 | 45.37798 | 3.98800 | 33935 ft | 407 kts | 233° |
| 2026-05-06 12:35 | 45.34485 | 3.92259 | 33928 ft | 408 kts | 233° |
| 2026-05-06 12:35 | 45.31167 | 3.85708 | 34007 ft | 409 kts | 233° |
| 2026-05-06 12:36 | 45.27829 | 3.79142 | 33919 ft | 410 kts | 233° |
| 2026-05-06 12:36 | 45.24486 | 3.72570 | 33907 ft | 411 kts | 234° |
| 2026-05-06 12:37 | 45.21183 | 3.65868 | 33911 ft | 413 kts | 234° |
| 2026-05-06 12:37 | 45.17918 | 3.59173 | 33917 ft | 413 kts | 234° |
| 2026-05-06 12:38 | 45.14629 | 3.52484 | 33922 ft | 414 kts | 234° |
| 2026-05-06 12:38 | 45.11324 | 3.45805 | 33924 ft | 414 kts | 234° |
| 2026-05-06 12:39 | 45.08008 | 3.39143 | 33921 ft | 414 kts | 234° |
| 2026-05-06 12:39 | 45.04687 | 3.32481 | 33929 ft | 415 kts | 234° |
| 2026-05-06 12:40 | 45.01326 | 3.25748 | 33927 ft | 415 kts | 234° |
| 2026-05-06 12:40 | 44.98013 | 3.19111 | 33935 ft | 415 kts | 234° |
| 2026-05-06 12:41 | 44.94679 | 3.12447 | 33938 ft | 415 kts | 234° |
| 2026-05-06 12:41 | 44.91340 | 3.05790 | 33946 ft | 416 kts | 234° |
| 2026-05-06 12:42 | 44.87990 | 2.99140 | 33954 ft | 416 kts | 234° |
| 2026-05-06 12:42 | 44.84604 | 2.92459 | 33960 ft | 416 kts | 235° |
| 2026-05-06 12:43 | 44.81383 | 2.85671 | 33960 ft | 417 kts | 237° |
| 2026-05-06 12:43 | 44.78287 | 2.78780 | 33965 ft | 417 kts | 238° |
| 2026-05-06 12:44 | 44.75166 | 2.71896 | 33970 ft | 417 kts | 237° |
| 2026-05-06 12:44 | 44.72005 | 2.65051 | 33972 ft | 417 kts | 237° |
| 2026-05-06 12:45 | 44.68826 | 2.58239 | 33976 ft | 417 kts | 237° |
| 2026-05-06 12:46 | 44.64045 | 2.47978 | 33973 ft | 416 kts | 237° |
| 2026-05-06 12:46 | 44.60879 | 2.41199 | 33970 ft | 416 kts | 237° |
| 2026-05-06 12:47 | 44.57706 | 2.34425 | 33974 ft | 415 kts | 237° |
| 2026-05-06 12:47 | 44.54536 | 2.27652 | 33969 ft | 415 kts | 237° |
| 2026-05-06 12:48 | 44.51365 | 2.20904 | 33974 ft | 414 kts | 237° |
| 2026-05-06 12:48 | 44.48195 | 2.14174 | 33974 ft | 413 kts | 237° |
| 2026-05-06 12:49 | 44.45027 | 2.07476 | 33973 ft | 413 kts | 237° |
| 2026-05-06 12:49 | 44.41853 | 2.00779 | 33971 ft | 413 kts | 237° |
| 2026-05-06 12:50 | 44.39191 | 1.95170 | 33974 ft | 413 kts | 237° |
| 2026-05-06 12:50 | 44.36014 | 1.88477 | 33974 ft | 413 kts | 237° |
| 2026-05-06 12:51 | 44.32826 | 1.81800 | 33971 ft | 413 kts | 237° |
| 2026-05-06 12:51 | 44.29628 | 1.75129 | 33976 ft | 413 kts | 237° |
| 2026-05-06 12:52 | 44.26493 | 1.68407 | 33976 ft | 413 kts | 238° |
| 2026-05-06 12:52 | 44.23419 | 1.61627 | 33971 ft | 414 kts | 238° |
| 2026-05-06 12:53 | 44.20332 | 1.54846 | 33982 ft | 414 kts | 238° |
| 2026-05-06 12:53 | 44.17195 | 1.48047 | 33984 ft | 415 kts | 238° |
| 2026-05-06 12:54 | 44.14067 | 1.41301 | 33983 ft | 414 kts | 238° |
| 2026-05-06 12:54 | 44.10936 | 1.34560 | 33970 ft | 414 kts | 238° |
| 2026-05-06 12:55 | 44.07815 | 1.27836 | 33967 ft | 414 kts | 238° |
| 2026-05-06 12:55 | 44.04685 | 1.21118 | 33969 ft | 414 kts | 238° |
| 2026-05-06 12:56 | 44.01549 | 1.14421 | 33964 ft | 413 kts | 238° |
| 2026-05-06 12:56 | 43.98414 | 1.07737 | 33960 ft | 413 kts | 238° |
| 2026-05-06 12:57 | 43.95272 | 1.01044 | 33958 ft | 414 kts | 238° |
| 2026-05-06 12:57 | 43.92111 | 0.94319 | 33962 ft | 413 kts | 238° |
| 2026-05-06 12:58 | 43.88965 | 0.87648 | 33967 ft | 413 kts | 238° |
| 2026-05-06 12:58 | 43.85931 | 0.80885 | 33966 ft | 413 kts | 240° |
| 2026-05-06 12:59 | 43.83043 | 0.74003 | 33980 ft | 413 kts | 240° |
| 2026-05-06 12:59 | 43.80149 | 0.67143 | 33967 ft | 413 kts | 240° |
| 2026-05-06 13:00 | 43.77209 | 0.60323 | 33970 ft | 412 kts | 240° |
| 2026-05-06 13:00 | 43.74251 | 0.53523 | 33972 ft | 413 kts | 240° |
| 2026-05-06 13:01 | 43.71291 | 0.46719 | 33978 ft | 413 kts | 240° |
| 2026-05-06 13:01 | 43.68316 | 0.39877 | 33980 ft | 413 kts | 240° |
| 2026-05-06 13:02 | 43.65356 | 0.33084 | 33988 ft | 413 kts | 240° |
| 2026-05-06 13:02 | 43.62391 | 0.26309 | 33988 ft | 413 kts | 240° |
| 2026-05-06 13:03 | 43.59415 | 0.19531 | 33986 ft | 413 kts | 240° |
| 2026-05-06 13:03 | 43.56440 | 0.12759 | 33989 ft | 413 kts | 240° |
| 2026-05-06 13:04 | 43.53446 | 0.05956 | 33990 ft | 413 kts | 240° |
| 2026-05-06 13:04 | 43.50461 | -0.00801 | 33993 ft | 413 kts | 240° |
| 2026-05-06 13:05 | 43.47474 | -0.07552 | 33999 ft | 413 kts | 240° |
| 2026-05-06 13:05 | 43.44481 | -0.14293 | 34011 ft | 414 kts | 240° |
| 2026-05-06 13:06 | 43.41479 | -0.21037 | 34009 ft | 413 kts | 240° |
| 2026-05-06 13:06 | 43.38484 | -0.27758 | 34009 ft | 412 kts | 240° |
| 2026-05-06 13:07 | 43.35486 | -0.34481 | 34009 ft | 412 kts | 240° |
| 2026-05-06 13:07 | 43.32489 | -0.41191 | 34005 ft | 412 kts | 240° |
| 2026-05-06 13:08 | 43.29482 | -0.47900 | 34005 ft | 412 kts | 240° |
| 2026-05-06 13:08 | 43.26469 | -0.54598 | 34004 ft | 413 kts | 240° |
| 2026-05-06 13:09 | 43.23426 | -0.61330 | 34006 ft | 413 kts | 239° |
| 2026-05-06 13:09 | 43.20400 | -0.68017 | 34008 ft | 413 kts | 240° |
| 2026-05-06 13:10 | 43.17374 | -0.74703 | 34006 ft | 412 kts | 240° |
| 2026-05-06 13:10 | 43.14352 | -0.81379 | 34008 ft | 412 kts | 240° |
| 2026-05-06 13:11 | 43.11325 | -0.88050 | 34009 ft | 412 kts | 240° |
| 2026-05-06 13:11 | 43.08284 | -0.94713 | 34010 ft | 412 kts | 239° |
| 2026-05-06 13:12 | 43.05242 | -1.01365 | 34013 ft | 412 kts | 239° |
| 2026-05-06 13:12 | 43.02200 | -1.08010 | 34018 ft | 413 kts | 240° |
| 2026-05-06 13:13 | 42.99152 | -1.14655 | 34019 ft | 413 kts | 240° |
| 2026-05-06 13:13 | 42.96100 | -1.21290 | 34019 ft | 412 kts | 239° |
| 2026-05-06 13:14 | 42.93041 | -1.27910 | 34032 ft | 412 kts | 239° |
| 2026-05-06 13:14 | 42.89969 | -1.34572 | 34031 ft | 412 kts | 239° |
| 2026-05-06 13:15 | 42.86916 | -1.41167 | 34035 ft | 411 kts | 240° |
| 2026-05-06 13:15 | 42.83861 | -1.47746 | 34039 ft | 411 kts | 239° |
| 2026-05-06 13:16 | 42.80801 | -1.54314 | 34037 ft | 410 kts | 239° |
| 2026-05-06 13:16 | 42.77736 | -1.60871 | 34037 ft | 410 kts | 240° |
| 2026-05-06 13:17 | 42.74672 | -1.67414 | 34035 ft | 410 kts | 240° |
| 2026-05-06 13:17 | 42.72424 | -1.74465 | 34035 ft | 406 kts | 255° |
| 2026-05-06 13:18 | 42.70786 | -1.81822 | 34034 ft | 406 kts | 254° |
| 2026-05-06 13:18 | 42.69123 | -1.89164 | 34034 ft | 406 kts | 254° |
| 2026-05-06 13:19 | 42.67460 | -1.96491 | 34030 ft | 406 kts | 254° |
| 2026-05-06 13:19 | 42.66064 | -2.02624 | 34029 ft | 406 kts | 254° |
| 2026-05-06 13:20 | 42.64393 | -2.09953 | 34021 ft | 406 kts | 254° |
| 2026-05-06 13:20 | 42.62719 | -2.17260 | 34021 ft | 405 kts | 254° |
| 2026-05-06 13:21 | 42.60972 | -2.24546 | 34018 ft | 406 kts | 253° |
| 2026-05-06 13:21 | 42.59180 | -2.31854 | 34018 ft | 405 kts | 253° |
| 2026-05-06 13:22 | 42.57399 | -2.39106 | 34018 ft | 405 kts | 253° |
| 2026-05-06 13:22 | 42.55620 | -2.46356 | 34021 ft | 405 kts | 253° |
| 2026-05-06 13:23 | 42.53847 | -2.53594 | 34024 ft | 404 kts | 253° |
| 2026-05-06 13:23 | 42.52076 | -2.60823 | 34019 ft | 404 kts | 253° |
| 2026-05-06 13:24 | 42.50299 | -2.68042 | 34019 ft | 403 kts | 253° |
| 2026-05-06 13:24 | 42.48520 | -2.75248 | 34016 ft | 403 kts | 253° |
| 2026-05-06 13:25 | 42.46734 | -2.82442 | 34026 ft | 403 kts | 253° |
| 2026-05-06 13:25 | 42.44830 | -2.89574 | 34016 ft | 404 kts | 247° |
| 2026-05-06 13:26 | 42.42476 | -2.96480 | 34015 ft | 404 kts | 248° |
| 2026-05-06 13:26 | 42.40123 | -3.03399 | 34015 ft | 404 kts | 248° |
| 2026-05-06 13:27 | 42.37765 | -3.10338 | 34014 ft | 404 kts | 247° |
| 2026-05-06 13:27 | 42.35409 | -3.17217 | 34017 ft | 404 kts | 247° |
| 2026-05-06 13:28 | 42.33044 | -3.24101 | 34019 ft | 403 kts | 247° |
| 2026-05-06 13:28 | 42.30679 | -3.30974 | 34022 ft | 403 kts | 247° |
| 2026-05-06 13:29 | 42.28315 | -3.37838 | 34031 ft | 403 kts | 247° |
| 2026-05-06 13:29 | 42.25948 | -3.44693 | 34033 ft | 403 kts | 247° |
| 2026-05-06 13:30 | 42.23570 | -3.51551 | 34033 ft | 403 kts | 247° |
| 2026-05-06 13:30 | 42.21183 | -3.58405 | 34050 ft | 404 kts | 247° |
| 2026-05-06 13:31 | 42.18794 | -3.65260 | 34027 ft | 404 kts | 247° |
| 2026-05-06 13:31 | 42.16390 | -3.72171 | 34036 ft | 404 kts | 246° |
| 2026-05-06 13:32 | 42.13995 | -3.79032 | 34019 ft | 404 kts | 246° |
| 2026-05-06 13:32 | 42.11597 | -3.85890 | 34019 ft | 405 kts | 246° |
| 2026-05-06 13:33 | 42.09188 | -3.92730 | 34005 ft | 405 kts | 246° |
| 2026-05-06 13:33 | 42.06772 | -3.99570 | 33997 ft | 405 kts | 246° |
| 2026-05-06 13:34 | 42.04353 | -4.06409 | 34005 ft | 405 kts | 246° |
| 2026-05-06 13:34 | 42.01182 | -4.12666 | 34009 ft | 410 kts | 228° |
| 2026-05-06 13:35 | 41.96900 | -4.17776 | 34005 ft | 412 kts | 224° |
| 2026-05-06 13:35 | 41.92581 | -4.22843 | 34005 ft | 413 kts | 224° |
| 2026-05-06 13:36 | 41.88256 | -4.27914 | 34007 ft | 413 kts | 224° |
| 2026-05-06 13:36 | 41.83929 | -4.32965 | 33991 ft | 412 kts | 224° |
| 2026-05-06 13:37 | 41.79595 | -4.38017 | 33995 ft | 412 kts | 224° |
| 2026-05-06 13:37 | 41.75232 | -4.43087 | 34002 ft | 413 kts | 224° |
| 2026-05-06 13:38 | 41.70890 | -4.48114 | 33995 ft | 413 kts | 224° |
| 2026-05-06 13:38 | 41.66516 | -4.53177 | 34001 ft | 413 kts | 224° |
| 2026-05-06 13:39 | 41.62171 | -4.58204 | 34002 ft | 413 kts | 224° |
| 2026-05-06 13:39 | 41.57824 | -4.63227 | 34009 ft | 413 kts | 224° |
| 2026-05-06 13:40 | 41.53470 | -4.68246 | 34012 ft | 413 kts | 224° |
| 2026-05-06 13:40 | 41.49127 | -4.73242 | 34008 ft | 413 kts | 223° |
| 2026-05-06 13:41 | 41.44771 | -4.78231 | 34005 ft | 413 kts | 223° |
| 2026-05-06 13:41 | 41.40416 | -4.83218 | 34002 ft | 413 kts | 223° |
| 2026-05-06 13:42 | 41.36064 | -4.88192 | 34002 ft | 412 kts | 223° |
| 2026-05-06 13:42 | 41.31713 | -4.93161 | 33998 ft | 412 kts | 223° |
| 2026-05-06 13:43 | 41.27361 | -4.98118 | 33997 ft | 412 kts | 223° |
| 2026-05-06 13:43 | 41.22979 | -5.03104 | 33998 ft | 412 kts | 223° |
| 2026-05-06 13:44 | 41.18625 | -5.08043 | 33994 ft | 411 kts | 223° |
| 2026-05-06 13:44 | 41.14269 | -5.12969 | 33999 ft | 411 kts | 223° |
| 2026-05-06 13:45 | 41.09921 | -5.17886 | 33999 ft | 411 kts | 223° |
| 2026-05-06 13:45 | 41.03397 | -5.25251 | 34004 ft | 411 kts | 223° |
| 2026-05-06 13:46 | 40.99046 | -5.30143 | 34010 ft | 410 kts | 223° |
| 2026-05-06 13:46 | 40.94692 | -5.35024 | 34018 ft | 410 kts | 223° |
| 2026-05-06 13:47 | 40.90316 | -5.39929 | 34022 ft | 410 kts | 223° |
| 2026-05-06 13:47 | 40.85967 | -5.44796 | 34017 ft | 409 kts | 223° |
| 2026-05-06 13:48 | 40.82352 | -5.48835 | 34022 ft | 409 kts | 223° |
| 2026-05-06 13:48 | 40.78009 | -5.53681 | 34003 ft | 409 kts | 223° |
| 2026-05-06 13:49 | 40.73665 | -5.58518 | 34001 ft | 408 kts | 222° |
| 2026-05-06 13:49 | 40.69291 | -5.63375 | 33994 ft | 408 kts | 222° |
| 2026-05-06 13:50 | 40.64948 | -5.68199 | 33986 ft | 408 kts | 222° |
| 2026-05-06 13:50 | 40.60608 | -5.73008 | 33969 ft | 408 kts | 222° |
| 2026-05-06 13:51 | 40.56262 | -5.77806 | 33971 ft | 408 kts | 222° |
| 2026-05-06 13:51 | 40.51910 | -5.82602 | 33967 ft | 408 kts | 222° |
| 2026-05-06 13:52 | 40.47569 | -5.87389 | 33962 ft | 407 kts | 222° |
| 2026-05-06 13:52 | 40.43226 | -5.92171 | 33964 ft | 407 kts | 222° |
| 2026-05-06 13:53 | 40.38882 | -5.96948 | 33957 ft | 408 kts | 222° |
| 2026-05-06 13:53 | 40.34529 | -6.01715 | 33951 ft | 408 kts | 222° |
| 2026-05-06 13:54 | 40.30178 | -6.06472 | 33954 ft | 407 kts | 222° |
| 2026-05-06 13:54 | 40.25802 | -6.11267 | 33947 ft | 407 kts | 222° |
| 2026-05-06 13:55 | 40.21456 | -6.16013 | 33956 ft | 407 kts | 222° |
| 2026-05-06 13:55 | 40.17100 | -6.20740 | 33946 ft | 407 kts | 222° |
| 2026-05-06 13:56 | 40.12744 | -6.25465 | 33944 ft | 407 kts | 222° |
| 2026-05-06 13:56 | 40.08396 | -6.30194 | 33945 ft | 406 kts | 222° |
| 2026-05-06 13:57 | 40.04044 | -6.34912 | 33943 ft | 406 kts | 222° |
| 2026-05-06 13:57 | 39.99694 | -6.39612 | 33943 ft | 406 kts | 222° |
| 2026-05-06 13:58 | 39.95342 | -6.44308 | 33946 ft | 406 kts | 222° |
| 2026-05-06 13:58 | 39.90984 | -6.49011 | 33942 ft | 406 kts | 222° |
| 2026-05-06 13:59 | 39.86599 | -6.53726 | 33947 ft | 406 kts | 221° |
| 2026-05-06 13:59 | 39.82238 | -6.58401 | 33947 ft | 406 kts | 221° |
| 2026-05-06 14:00 | 39.77876 | -6.63085 | 33953 ft | 406 kts | 222° |
| 2026-05-06 14:00 | 39.73520 | -6.67758 | 33946 ft | 406 kts | 221° |
| 2026-05-06 14:01 | 39.69150 | -6.72416 | 33947 ft | 406 kts | 221° |
| 2026-05-06 14:01 | 39.64784 | -6.77066 | 33955 ft | 406 kts | 221° |
| 2026-05-06 14:02 | 39.60418 | -6.81711 | 33960 ft | 406 kts | 221° |
| 2026-05-06 14:02 | 39.56050 | -6.86357 | 33958 ft | 406 kts | 221° |
| 2026-05-06 14:03 | 39.51682 | -6.90995 | 33949 ft | 406 kts | 221° |
| 2026-05-06 14:03 | 39.47307 | -6.95628 | 33953 ft | 406 kts | 221° |
| 2026-05-06 14:04 | 39.42894 | -7.00290 | 33953 ft | 406 kts | 221° |
| 2026-05-06 14:04 | 39.38523 | -7.04908 | 33951 ft | 407 kts | 221° |
| 2026-05-06 14:05 | 39.34134 | -7.09526 | 33948 ft | 407 kts | 221° |
| 2026-05-06 14:05 | 39.29755 | -7.14140 | 33948 ft | 407 kts | 221° |
| 2026-05-06 14:06 | 39.25360 | -7.18756 | 33947 ft | 407 kts | 221° |
| 2026-05-06 14:06 | 39.20556 | -7.22650 | 33946 ft | 413 kts | 205° |
| 2026-05-06 14:07 | 39.15010 | -7.24766 | 33941 ft | 417 kts | 199° |
| 2026-05-06 14:07 | 39.09415 | -7.26729 | 33944 ft | 417 kts | 199° |
| 2026-05-06 14:08 | 39.03814 | -7.28697 | 33943 ft | 417 kts | 199° |
| 2026-05-06 14:08 | 38.98206 | -7.30656 | 33940 ft | 418 kts | 199° |
| 2026-05-06 14:09 | 38.92591 | -7.32617 | 33944 ft | 418 kts | 199° |
| 2026-05-06 14:09 | 38.86937 | -7.34580 | 33939 ft | 418 kts | 199° |
| 2026-05-06 14:10 | 38.81314 | -7.36536 | 33943 ft | 419 kts | 199° |
| 2026-05-06 14:10 | 38.75694 | -7.38493 | 33941 ft | 419 kts | 199° |
| 2026-05-06 14:11 | 38.70056 | -7.40451 | 33940 ft | 425 kts | 199° |
| 2026-05-06 14:11 | 38.64260 | -7.42460 | 33403 ft | 435 kts | 199° |
| 2026-05-06 14:12 | 38.61350 | -7.43461 | 32726 ft | 432 kts | 198° |
| 2026-05-06 14:12 | 38.58470 | -7.44449 | 31939 ft | 426 kts | 198° |
| 2026-05-06 14:12 | 38.55630 | -7.45425 | 31173 ft | 420 kts | 198° |
| 2026-05-06 14:12 | 38.52822 | -7.46391 | 30695 ft | 415 kts | 198° |
| 2026-05-06 14:13 | 38.50043 | -7.47348 | 30177 ft | 411 kts | 198° |
| 2026-05-06 14:13 | 38.47301 | -7.48293 | 29686 ft | 406 kts | 198° |
| 2026-05-06 14:13 | 38.44599 | -7.49224 | 29245 ft | 398 kts | 198° |
| 2026-05-06 14:13 | 38.41951 | -7.50133 | 28824 ft | 391 kts | 198° |
| 2026-05-06 14:14 | 38.39347 | -7.51024 | 28419 ft | 384 kts | 198° |
| 2026-05-06 14:14 | 38.36786 | -7.51900 | 28020 ft | 377 kts | 198° |
| 2026-05-06 14:14 | 38.34272 | -7.52761 | 27639 ft | 371 kts | 198° |
| 2026-05-06 14:14 | 38.31768 | -7.53619 | 27259 ft | 365 kts | 198° |
| 2026-05-06 14:15 | 38.29332 | -7.54453 | 26884 ft | 360 kts | 198° |
| 2026-05-06 14:15 | 38.26934 | -7.55271 | 26520 ft | 355 kts | 198° |
| 2026-05-06 14:15 | 38.24567 | -7.56079 | 26162 ft | 350 kts | 198° |
| 2026-05-06 14:15 | 38.22236 | -7.56877 | 25792 ft | 345 kts | 198° |
| 2026-05-06 14:16 | 38.19935 | -7.57665 | 25435 ft | 340 kts | 198° |
| 2026-05-06 14:16 | 38.17666 | -7.58442 | 25076 ft | 336 kts | 198° |
| 2026-05-06 14:16 | 38.15422 | -7.59207 | 24705 ft | 332 kts | 198° |
| 2026-05-06 14:16 | 38.13205 | -7.59963 | 24350 ft | 329 kts | 198° |
| 2026-05-06 14:17 | 38.11006 | -7.60710 | 23989 ft | 326 kts | 198° |
| 2026-05-06 14:17 | 38.08797 | -7.61320 | 23600 ft | 326 kts | 190° |
| 2026-05-06 14:17 | 38.06530 | -7.61453 | 23160 ft | 326 kts | 184° |
| 2026-05-06 14:17 | 38.04271 | -7.61443 | 22762 ft | 323 kts | 184° |
| 2026-05-06 14:18 | 38.02033 | -7.61440 | 22369 ft | 320 kts | 184° |
| 2026-05-06 14:18 | 37.99813 | -7.61443 | 21977 ft | 318 kts | 184° |
| 2026-05-06 14:18 | 37.97601 | -7.61450 | 21588 ft | 317 kts | 184° |
| 2026-05-06 14:18 | 37.95406 | -7.61454 | 21209 ft | 315 kts | 183° |
| 2026-05-06 14:19 | 37.93218 | -7.61455 | 20823 ft | 313 kts | 183° |
| 2026-05-06 14:19 | 37.91777 | -7.61455 | 20567 ft | 312 kts | 183° |
| 2026-05-06 14:19 | 37.89606 | -7.61456 | 20175 ft | 311 kts | 183° |
| 2026-05-06 14:19 | 37.87449 | -7.61457 | 19795 ft | 309 kts | 183° |
| 2026-05-06 14:20 | 37.85301 | -7.61458 | 19409 ft | 308 kts | 183° |
| 2026-05-06 14:20 | 37.83134 | -7.61458 | 19024 ft | 307 kts | 183° |
| 2026-05-06 14:20 | 37.81006 | -7.61459 | 18646 ft | 305 kts | 183° |
| 2026-05-06 14:20 | 37.78885 | -7.61461 | 18266 ft | 305 kts | 182° |
| 2026-05-06 14:21 | 37.76771 | -7.61464 | 17853 ft | 303 kts | 182° |
| 2026-05-06 14:21 | 37.74670 | -7.61468 | 17466 ft | 301 kts | 182° |
| 2026-05-06 14:21 | 37.72583 | -7.61470 | 17087 ft | 299 kts | 182° |
| 2026-05-06 14:21 | 37.70513 | -7.61468 | 16716 ft | 297 kts | 182° |
| 2026-05-06 14:22 | 37.68449 | -7.61466 | 16351 ft | 295 kts | 182° |
| 2026-05-06 14:22 | 37.61751 | -7.61472 | 15140 ft | 290 kts | 182° |
| 2026-05-06 14:23 | 37.60363 | -7.61475 | 14891 ft | 289 kts | 182° |
| 2026-05-06 14:24 | 37.51947 | -7.61477 | 13350 ft | 283 kts | 181° |
| 2026-05-06 14:24 | 37.46398 | -7.61474 | 12337 ft | 278 kts | 181° |
| 2026-05-06 14:25 | 37.44463 | -7.61474 | 11991 ft | 277 kts | 182° |
| 2026-05-06 14:25 | 37.42541 | -7.61472 | 11652 ft | 276 kts | 182° |
| 2026-05-06 14:26 | 37.36631 | -7.61468 | 10594 ft | 272 kts | 182° |
| 2026-05-06 14:26 | 37.34736 | -7.61472 | 10254 ft | 272 kts | 182° |
| 2026-05-06 14:26 | 37.32843 | -7.61477 | 9915 ft | 272 kts | 182° |
| 2026-05-06 14:26 | 37.30948 | -7.61478 | 9549 ft | 272 kts | 181° |
| 2026-05-06 14:27 | 37.29060 | -7.61476 | 9196 ft | 271 kts | 182° |
| 2026-05-06 14:27 | 37.27183 | -7.61475 | 8852 ft | 269 kts | 181° |
| 2026-05-06 14:27 | 37.25311 | -7.61475 | 8516 ft | 269 kts | 181° |
| 2026-05-06 14:27 | 37.23448 | -7.61476 | 8178 ft | 267 kts | 181° |
| 2026-05-06 14:28 | 37.21588 | -7.61478 | 7841 ft | 266 kts | 181° |
| 2026-05-06 14:28 | 37.19716 | -7.61483 | 7495 ft | 265 kts | 182° |
| 2026-05-06 14:28 | 37.17867 | -7.61487 | 7162 ft | 266 kts | 181° |
| 2026-05-06 14:28 | 37.16015 | -7.61490 | 7022 ft | 272 kts | 181° |
| 2026-05-06 14:29 | 37.14079 | -7.61494 | 6799 ft | 282 kts | 181° |
| 2026-05-06 14:29 | 37.12104 | -7.61496 | 6320 ft | 285 kts | 181° |
| 2026-05-06 14:29 | 37.10115 | -7.61496 | 5869 ft | 286 kts | 181° |
| 2026-05-06 14:29 | 37.08150 | -7.61727 | 5469 ft | 283 kts | 195° |
| 2026-05-06 14:30 | 37.06307 | -7.62547 | 5071 ft | 280 kts | 206° |
| 2026-05-06 14:30 | 37.04574 | -7.63512 | 4989 ft | 267 kts | 205° |
| 2026-05-06 14:30 | 37.02912 | -7.64429 | 4888 ft | 255 kts | 206° |
| 2026-05-06 14:30 | 37.01321 | -7.65303 | 4770 ft | 244 kts | 206° |
| 2026-05-06 14:31 | 36.99846 | -7.66272 | 4659 ft | 236 kts | 220° |
| 2026-05-06 14:31 | 36.98718 | -7.67719 | 4554 ft | 231 kts | 240° |
| 2026-05-06 14:31 | 36.98031 | -7.69539 | 4297 ft | 229 kts | 258° |
| 2026-05-06 14:31 | 36.97875 | -7.71485 | 4018 ft | 221 kts | 278° |
| 2026-05-06 14:32 | 36.98115 | -7.73351 | 3982 ft | 213 kts | 283° |
| 2026-05-06 14:32 | 36.98377 | -7.75169 | 3505 ft | 215 kts | 283° |
| 2026-05-06 14:32 | 36.98638 | -7.76993 | 3076 ft | 209 kts | 282° |
| 2026-05-06 14:32 | 36.98883 | -7.78704 | 2773 ft | 190 kts | 282° |
| 2026-05-06 14:33 | 36.99107 | -7.80264 | 2516 ft | 176 kts | 282° |
| 2026-05-06 14:33 | 36.99316 | -7.81716 | 2296 ft | 164 kts | 282° |
| 2026-05-06 14:33 | 36.99511 | -7.83073 | 2061 ft | 156 kts | 282° |
| 2026-05-06 14:33 | 36.99694 | -7.84346 | 1872 ft | 143 kts | 280° |
| 2026-05-06 14:34 | 36.99865 | -7.85546 | 1688 ft | 138 kts | 282° |
| 2026-05-06 14:34 | 37.00037 | -7.86713 | 1523 ft | 136 kts | 280° |
| 2026-05-06 14:34 | 37.00200 | -7.87867 | 1311 ft | 134 kts | 281° |
| 2026-05-06 14:34 | 37.00364 | -7.89016 | 1141 ft | 134 kts | 281° |
| 2026-05-06 14:35 | 37.00528 | -7.90164 | 996 ft | 133 kts | 278° |
| 2026-05-06 14:35 | 37.00690 | -7.91315 | 792 ft | 135 kts | 277° |
| 2026-05-06 14:35 | 37.00855 | -7.92472 | 619 ft | 133 kts | 275° |
| 2026-05-06 14:35 | 37.01017 | -7.93606 | 409 ft | 131 kts | 276° |
| 2026-05-06 14:36 | 37.01122 | -7.94347 | 282 ft | 130 kts | 277° |
| 2026-05-06 14:36 | 37.01278 | -7.95455 | 134 ft | 129 kts | 277° |
| 2026-05-06 14:36 | 37.01442 | -7.96555 | 27 ft | 122 kts | 276° |
| 2026-05-06 14:36 | 37.01561 | -7.97420 | 24 ft | 77 kts | 280° |
| 2026-05-06 14:37 | 37.01625 | -7.97865 | 25 ft | 27 kts | 281° |
| 2026-05-06 14:37 | 37.01675 | -7.98058 | 28 ft | 22 kts | 298° |
| 2026-05-06 14:37 | 37.01723 | -7.98143 | 27 ft | 0 kts | 309° |
| 2026-05-06 14:37 | 37.01740 | -7.98170 | 25 ft | 8 kts | 309° |
| 2026-05-06 14:38 | 37.01788 | -7.98230 | 22 ft | 11 kts | 332° |
| 2026-05-06 14:38 | 37.01849 | -7.98179 | 22 ft | 13 kts | 77° |
| 2026-05-06 14:38 | 37.01834 | -7.98058 | 21 ft | 15 kts | 99° |
| 2026-05-06 14:38 | 37.01817 | -7.97923 | 21 ft | 17 kts | 99° |
| 2026-05-06 14:39 | 37.01797 | -7.97775 | 21 ft | 18 kts | 100° |
| 2026-05-06 14:39 | 37.01773 | -7.97615 | 21 ft | 18 kts | 98° |
| 2026-05-06 14:39 | 37.01752 | -7.97451 | 21 ft | 20 kts | 100° |
| 2026-05-06 14:39 | 37.01726 | -7.97279 | 21 ft | 19 kts | 100° |
| 2026-05-06 14:40 | 37.01700 | -7.97118 | 21 ft | 20 kts | 101° |
| 2026-05-06 14:40 | 37.01679 | -7.96959 | 21 ft | 18 kts | 100° |
| 2026-05-06 14:40 | 37.01654 | -7.96795 | 22 ft | 20 kts | 100° |
| 2026-05-06 14:40 | 37.01635 | -7.96645 | 21 ft | 14 kts | 99° |
| 2026-05-06 14:41 | 37.01658 | -7.96548 | 21 ft | 13 kts | 28° |
| 2026-05-06 14:41 | 37.01739 | -7.96525 | 20 ft | 8 kts | 11° |
| 2026-05-06 14:41 | 37.01787 | -7.96555 | 20 ft | 9 kts | 295° |
| 2026-05-06 14:41 | 37.01807 | -7.96630 | 22 ft | 9 kts | 318° |
| 2026-05-06 14:42 | 37.01861 | -7.96628 | 20 ft | 7 kts | 16° |
| 2026-05-06 14:42 | 37.01884 | -7.96622 | 20 ft | 0 kts | 11° |